Terminal Aerodrome Forecast
Issued by NWS Spokane, WA

Home | Current Version | Previous Version | Text Only | Print | Product List | Glossary On
Versions: 1 2 3 4 5 6 7 8 9 10 11 12
000
FTUS46 KOTX 292339
TAFEAT
TAF
KEAT 292339Z 3000/3024 12005KT P6SM SKC
     FM300700 30005KT P6SM SCT250
     FM301500 26006KT P6SM SCT180 BKN250
     FM301800 12007KT P6SM SCT180 BKN250=

USA.gov is the U.S. government's official web portal to all federal, state and local government web resources and services.